Погода Риу-дас-Острасна 2 недели

Рио-де-Жанейро, Бразилия

17 - 30 июня
  • 17июня
    Сегодня
    +16°
    +33°
    Ясно и безоблачно
    ВремяПогодаТемператураВлажностьДавлениеВетер, м/сВероятность осадков
    00:00Небольшая облачность+21°C84 %762 мм4.7 м/с5 %
    03:00Ясно и безоблачно+19°C90 %761 мм3.2 м/с5 %
    06:00Ясно и безоблачно+17°C87 %761 мм3.4 м/с5 %
    09:00Ясно и безоблачно+26°C66 %762 мм4.0 м/с5 %
    12:00Ясно и безоблачно+32°C47 %761 мм4.5 м/с5 %
    15:00Ясно и безоблачно+33°C43 %760 мм4.9 м/с5 %
    18:00Практически безоблачно+26°C53 %760 мм4.4 м/с5 %
    21:00Небольшая облачность+22°C74 %761 мм5.5 м/с5 %
  • 18июня
    Вторник
    +19°
    +33°
    Небольшая облачность
    ВремяПогодаТемператураВлажностьДавлениеВетер, м/сВероятность осадков
    00:00Облачно с прояснениями+20°C87 %761 мм4.2 м/с5 %
    03:00Практически безоблачно+18°C93 %760 мм3.0 м/с5 %
    06:00Ясно и безоблачно+17°C89 %760 мм3.1 м/с5 %
    09:00Ясно и безоблачно+25°C69 %762 мм2.7 м/с5 %
    12:00Небольшая облачность+32°C54 %761 мм2.4 м/с5 %
    15:00Небольшая облачность+32°C60 %759 мм4.5 м/с5 %
    18:00Облачно с прояснениями+25°C76 %760 мм5.7 м/с5 %
    21:00Небольшая облачность+23°C83 %761 мм5.0 м/с5 %
  • 19июня
    Среда
    +17°
    +34°
    Ясно и безоблачно
    ВремяПогодаТемператураВлажностьДавлениеВетер, м/сВероятность осадков
    00:00Практически безоблачно+22°C90 %762 мм4.8 м/с5 %
    03:00Практически безоблачно+21°C96 %761 мм3.9 м/с5 %
    06:00Облачно с прояснениями+19°C98 %761 мм3.9 м/с5 %
    09:00Ясно и безоблачно+25°C81 %762 мм4.1 м/с5 %
    12:00Ясно и безоблачно+33°C52 %762 мм3.9 м/с5 %
    15:00Ясно и безоблачно+33°C51 %760 мм4.2 м/с5 %
    18:00Ясно и безоблачно+25°C75 %761 мм3.5 м/с5 %
    21:00Ясно и безоблачно+22°C80 %762 мм5.0 м/с5 %
  • 20июня
    Четверг
    +17°
    +33°
    Ясно и безоблачно
    ВремяПогодаТемператураВлажностьДавлениеВетер, м/сВероятность осадков
    00:00Ясно и безоблачно+21°C90 %762 мм4.0 м/с5 %
    03:00Ясно и безоблачно+20°C94 %762 мм3.4 м/с5 %
    06:00Ясно и безоблачно+18°C94 %762 мм3.0 м/с5 %
    09:00Ясно и безоблачно+25°C77 %763 мм1.9 м/с5 %
    12:00Ясно и безоблачно+32°C59 %762 мм2.3 м/с5 %
    15:00Ясно и безоблачно+31°C69 %761 мм3.7 м/с5 %
    18:00Ясно и безоблачно+24°C88 %762 мм3.6 м/с5 %
    21:00Ясно и безоблачно+22°C89 %763 мм2.6 м/с5 %
  • 21июня
    Пятница
    +19°
    +30°
    Ясно и безоблачно
    ВремяПогодаТемператураВлажностьДавлениеВетер, м/сВероятность осадков
    00:00Ясно и безоблачно+21°C92 %763 мм2.5 м/с5 %
    03:00Ясно и безоблачно+19°C94 %762 мм2.8 м/с5 %
    06:00Облачно с прояснениями+18°C95 %762 мм2.9 м/с5 %
    09:00Ясно и безоблачно+24°C87 %764 мм2.2 м/с5 %
    12:00Ясно и безоблачно+30°C72 %763 мм3.8 м/с5 %
    15:00Ясно и безоблачно+29°C72 %761 мм5.1 м/с5 %
    18:00Ясно и безоблачно+25°C80 %762 мм6.4 м/с5 %
    21:00Ясно и безоблачно+23°C83 %763 мм5.1 м/с6 %
Мы используем cookies
Соглашаюсь